Time;durP1;ratioP1;P1;durP2;ratioP2;P2;SDS_P1;SDS_P2;PMS_P1;PMS_P2;Temp;Humidity;BMP_temperature;BMP_pressure;BME280_temperature;BME280_humidity;BME280_pressure;Samples;Min_cycle;Max_cycle;Signal;HPM_P1;HPM_P2
2021/05/01 00:01:34;;;;;;;12.20;11.20;;;8.60;99.90;;;;;;5052099;28;20659;-74
2021/05/01 00:04:00;;;;;;;12.20;11.20;;;8.60;99.90;;;;;;5052118;28;20282;-74
2021/05/01 00:06:26;;;;;;;10.70;9.87;;;8.60;99.90;;;;;;5051834;28;20224;-74
2021/05/01 00:08:51;;;;;;;10.97;10.17;;;8.70;99.90;;;;;;5051964;28;20191;-74
2021/05/01 00:11:19;;;;;;;12.73;11.53;;;8.60;99.90;;;;;;5050638;28;20275;-73
2021/05/01 00:13:45;;;;;;;12.90;11.80;;;8.70;99.90;;;;;;5051789;28;20229;-74
2021/05/01 00:16:11;;;;;;;11.40;10.40;;;8.70;99.90;;;;;;5051990;28;20209;-74
2021/05/01 00:18:37;;;;;;;11.63;10.53;;;8.70;99.90;;;;;;5052793;28;20702;-74
2021/05/01 00:21:03;;;;;;;12.00;10.97;;;8.60;99.90;;;;;;5053183;28;20220;-73
2021/05/01 00:23:29;;;;;;;11.97;10.97;;;8.50;99.90;;;;;;5032718;28;20702;-74
2021/05/01 00:25:55;;;;;;;12.80;11.60;;;8.40;99.90;;;;;;5051471;28;20291;-73
2021/05/01 00:28:20;;;;;;;11.93;10.93;;;8.50;99.90;;;;;;5051540;28;20181;-74
2021/05/01 00:30:46;;;;;;;13.00;11.90;;;8.50;99.90;;;;;;5051496;28;20631;-74
2021/05/01 00:33:12;;;;;;;11.90;10.97;;;8.50;99.90;;;;;;5052318;28;20173;-74
2021/05/01 00:35:38;;;;;;;13.50;12.30;;;8.40;99.90;;;;;;5052839;28;20624;-73
2021/05/01 00:38:04;;;;;;;12.93;11.83;;;8.30;99.90;;;;;;5052502;28;20265;-73
2021/05/01 00:40:30;;;;;;;13.07;11.97;;;8.40;99.90;;;;;;5052236;28;20264;-74
2021/05/01 00:42:57;;;;;;;12.23;11.23;;;8.30;99.90;;;;;;5052076;28;20269;-74
2021/05/01 00:45:23;;;;;;;12.90;11.70;;;8.40;99.90;;;;;;5051105;28;20232;-74
2021/05/01 00:47:48;;;;;;;13.27;12.17;;;8.30;99.90;;;;;;5051266;28;20568;-74
2021/05/01 00:50:15;;;;;;;13.00;11.80;;;8.30;99.90;;;;;;5051618;28;20175;-73
2021/05/01 00:52:42;;;;;;;13.17;12.07;;;8.40;99.90;;;;;;5051145;28;20171;-73
2021/05/01 00:55:08;;;;;;;12.73;11.63;;;8.40;99.90;;;;;;5050735;28;20230;-74
2021/05/01 00:57:36;;;;;;;12.50;11.50;;;8.50;99.90;;;;;;5049858;28;20188;-73
2021/05/01 01:00:06;;;;;;;12.80;11.70;;;8.50;99.90;;;;;;5049690;28;20263;-74
2021/05/01 01:02:32;;;;;;;13.20;12.00;;;8.50;99.90;;;;;;5049825;28;20271;-73
2021/05/01 01:04:58;;;;;;;12.90;11.80;;;8.50;99.90;;;;;;5048437;28;20189;-74
2021/05/01 01:07:24;;;;;;;12.70;11.67;;;8.50;99.90;;;;;;5050524;28;20203;-74
2021/05/01 01:09:50;;;;;;;12.57;11.47;;;8.50;99.90;;;;;;5051859;28;20254;-73
2021/05/01 01:12:17;;;;;;;11.73;10.77;;;8.50;99.90;;;;;;5051851;28;20549;-74
2021/05/01 01:14:43;;;;;;;12.57;11.47;;;8.50;99.90;;;;;;5051834;28;20168;-73
2021/05/01 01:17:09;;;;;;;12.40;11.30;;;8.60;99.90;;;;;;5047794;28;20211;-74
2021/05/01 01:19:37;;;;;;;12.53;11.50;;;8.40;99.90;;;;;;5050323;28;20190;-73
2021/05/01 01:22:11;;;;;;;13.43;12.20;;;8.30;99.90;;;;;;5049135;28;20604;-73
2021/05/01 01:24:37;;;;;;;13.17;11.97;;;8.40;99.90;;;;;;5050259;28;20176;-74
2021/05/01 01:27:05;;;;;;;12.73;11.60;;;8.30;99.90;;;;;;5050239;28;20238;-73
2021/05/01 01:29:31;;;;;;;13.40;12.10;;;8.40;99.90;;;;;;5050341;28;20191;-73
2021/05/01 01:31:57;;;;;;;13.30;12.00;;;8.40;99.90;;;;;;5050159;28;20204;-73
2021/05/01 01:34:22;;;;;;;14.27;12.97;;;8.40;99.90;;;;;;5051175;28;20224;-73
2021/05/01 01:36:48;;;;;;;14.27;12.87;;;8.40;99.90;;;;;;5048790;28;20204;-73
2021/05/01 01:39:14;;;;;;;14.53;13.13;;;8.40;99.90;;;;;;5049895;28;20179;-73
2021/05/01 01:41:40;;;;;;;14.60;13.20;;;8.40;99.90;;;;;;5049928;28;20191;-73
2021/05/01 01:44:06;;;;;;;14.07;12.67;;;8.40;99.90;;;;;;5050041;28;20187;-73
2021/05/01 01:46:33;;;;;;;14.23;12.87;;;8.40;99.90;;;;;;5049845;28;20216;-73
2021/05/01 01:48:59;;;;;;;12.77;11.57;;;8.40;99.90;;;;;;5050075;28;20172;-73
2021/05/01 01:51:24;;;;;;;14.80;13.30;;;8.40;99.90;;;;;;5050079;28;20190;-74
2021/05/01 01:53:51;;;;;;;14.57;13.17;;;8.20;99.90;;;;;;5050076;28;20177;-72
2021/05/01 01:56:16;;;;;;;14.37;12.87;;;8.20;99.90;;;;;;5049788;28;20345;-73
2021/05/01 01:58:42;;;;;;;14.57;13.17;;;8.20;99.90;;;;;;5049992;28;20250;-73
2021/05/01 02:01:09;;;;;;;14.27;12.97;;;8.10;99.90;;;;;;5049943;28;20184;-73
2021/05/01 02:03:35;;;;;;;14.30;12.90;;;8.10;99.90;;;;;;5049860;28;20180;-74
2021/05/01 02:06:01;;;;;;;14.57;13.07;;;8.10;99.90;;;;;;5051681;28;20323;-73
2021/05/01 02:08:27;;;;;;;14.10;12.33;;;8.10;99.90;;;;;;5053604;28;20179;-73
2021/05/01 02:10:52;;;;;;;14.73;13.20;;;8.20;99.90;;;;;;5054953;28;20186;-74
2021/05/01 02:13:18;;;;;;;15.53;13.80;;;8.10;99.90;;;;;;5052077;28;20186;-73
2021/05/01 02:15:44;;;;;;;15.83;14.13;;;8.00;99.90;;;;;;5053074;28;20206;-73
2021/05/01 02:18:10;;;;;;;15.53;13.93;;;8.00;99.90;;;;;;5050421;28;20315;-73
2021/05/01 02:20:36;;;;;;;14.50;12.87;;;7.90;99.90;;;;;;5042699;28;20654;-74
2021/05/01 02:23:04;;;;;;;15.97;14.27;;;7.90;99.90;;;;;;5052190;28;20186;-73
2021/05/01 02:25:29;;;;;;;15.00;13.50;;;8.00;99.90;;;;;;5051864;28;20203;-73
2021/05/01 02:27:56;;;;;;;17.03;14.30;;;7.90;99.90;;;;;;5053221;28;20215;-73
2021/05/01 02:30:24;;;;;;;16.50;14.37;;;7.90;99.90;;;;;;5053737;28;20184;-73
2021/05/01 02:32:50;;;;;;;14.60;13.10;;;8.00;99.90;;;;;;5053767;28;20174;-73
2021/05/01 02:35:22;;;;;;;15.33;13.47;;;8.00;99.90;;;;;;5052782;28;20689;-73
2021/05/01 02:37:49;;;;;;;14.90;13.33;;;7.90;99.90;;;;;;5054230;28;20184;-73
2021/05/01 02:40:16;;;;;;;15.90;13.97;;;7.80;99.90;;;;;;5053632;28;20185;-73
2021/05/01 02:42:43;;;;;;;15.03;13.53;;;7.90;99.90;;;;;;5044902;28;20171;-73
2021/05/01 02:45:12;;;;;;;15.07;13.37;;;8.00;99.90;;;;;;5053327;28;20229;-73
2021/05/01 02:47:38;;;;;;;16.23;14.53;;;8.00;99.90;;;;;;5053544;28;20199;-73
2021/05/01 02:50:06;;;;;;;15.20;13.70;;;8.00;99.90;;;;;;5053384;28;20175;-73
2021/05/01 02:52:32;;;;;;;17.17;14.90;;;8.00;99.90;;;;;;5051610;28;20614;-73
2021/05/01 02:54:58;;;;;;;15.10;13.60;;;8.00;99.90;;;;;;5053181;28;20260;-73
2021/05/01 02:57:24;;;;;;;15.60;14.00;;;8.00;99.90;;;;;;5053133;28;20218;-73
2021/05/01 02:59:49;;;;;;;16.17;14.10;;;8.00;99.90;;;;;;5054661;28;20197;-73
2021/05/01 03:02:15;;;;;;;15.70;13.80;;;8.00;99.90;;;;;;5054575;28;20186;-73
2021/05/01 03:04:41;;;;;;;15.17;13.53;;;8.00;99.90;;;;;;5054511;28;20649;-74
2021/05/01 03:07:06;;;;;;;18.13;14.23;;;8.00;99.90;;;;;;5044608;28;20196;-73
2021/05/01 03:09:32;;;;;;;16.33;14.63;;;8.00;99.90;;;;;;5053007;28;20189;-73
2021/05/01 03:11:58;;;;;;;14.60;13.10;;;8.00;99.90;;;;;;5053252;28;20189;-73
2021/05/01 03:14:25;;;;;;;15.87;14.20;;;7.90;99.90;;;;;;5053021;28;20817;-73
2021/05/01 03:16:55;;;;;;;17.70;15.20;;;7.80;99.90;;;;;;5051554;28;20197;-74
2021/05/01 03:19:21;;;;;;;16.13;14.03;;;7.90;99.90;;;;;;5043424;28;20280;-73
2021/05/01 03:21:47;;;;;;;15.40;13.90;;;7.90;99.90;;;;;;5035848;28;20196;-73
2021/05/01 03:24:13;;;;;;;16.77;14.37;;;8.00;99.90;;;;;;5035958;28;20274;-74
2021/05/01 03:26:40;;;;;;;17.07;14.43;;;8.00;99.90;;;;;;5034276;28;20211;-73
2021/05/01 03:29:06;;;;;;;18.23;15.53;;;8.00;99.90;;;;;;5033969;28;20171;-73
2021/05/01 03:31:32;;;;;;;18.67;14.93;;;8.00;99.90;;;;;;5032191;28;20175;-74
2021/05/01 03:33:59;;;;;;;17.50;15.20;;;8.00;99.90;;;;;;5037182;28;20691;-74
2021/05/01 03:36:25;;;;;;;16.93;14.07;;;7.90;99.90;;;;;;5034507;28;20231;-73
2021/05/01 03:38:51;;;;;;;17.97;15.10;;;7.90;99.90;;;;;;5049391;28;20170;-73
2021/05/01 03:41:17;;;;;;;17.10;14.77;;;7.90;99.90;;;;;;5050610;28;20186;-73
2021/05/01 03:43:42;;;;;;;17.40;14.30;;;7.90;99.90;;;;;;5052451;28;20188;-74
2021/05/01 03:46:08;;;;;;;18.10;15.33;;;7.80;99.90;;;;;;5050850;28;20587;-73
2021/05/01 03:48:34;;;;;;;16.73;14.50;;;7.80;99.90;;;;;;5052331;28;20178;-73
2021/05/01 03:51:00;;;;;;;16.80;14.97;;;7.90;99.90;;;;;;5052280;28;20182;-73
2021/05/01 03:53:26;;;;;;;16.83;14.27;;;7.90;99.90;;;;;;5052257;28;20180;-73
2021/05/01 03:55:52;;;;;;;17.47;14.57;;;7.80;99.90;;;;;;5052070;28;20209;-73
2021/05/01 03:58:17;;;;;;;18.53;15.10;;;7.80;99.90;;;;;;5052042;28;20257;-74
2021/05/01 04:00:43;;;;;;;16.73;14.10;;;7.80;99.90;;;;;;5048113;28;20198;-73
2021/05/01 04:03:09;;;;;;;17.80;14.90;;;7.80;99.90;;;;;;5044942;28;20555;-73
2021/05/01 04:05:35;;;;;;;18.07;14.77;;;7.80;99.90;;;;;;5048032;28;20967;-73
2021/05/01 04:08:00;;;;;;;17.50;15.13;;;7.90;99.90;;;;;;5051197;28;20295;-74
2021/05/01 04:10:27;;;;;;;17.53;15.00;;;7.90;99.90;;;;;;5049770;28;20603;-73
2021/05/01 04:12:53;;;;;;;16.13;14.43;;;7.90;99.90;;;;;;5052220;28;20224;-73
2021/05/01 04:15:19;;;;;;;14.77;13.13;;;7.80;99.90;;;;;;5049988;28;20207;-73
2021/05/01 04:17:46;;;;;;;18.07;14.87;;;7.80;99.90;;;;;;5051762;28;20256;-73
2021/05/01 04:20:12;;;;;;;16.10;14.37;;;7.80;99.90;;;;;;5051578;28;20241;-73
2021/05/01 04:22:38;;;;;;;16.43;14.23;;;7.70;99.90;;;;;;5051602;28;20181;-73
2021/05/01 04:25:04;;;;;;;18.93;15.03;;;7.80;99.90;;;;;;5051270;28;20685;-73
2021/05/01 04:27:30;;;;;;;18.17;15.17;;;7.80;99.90;;;;;;5051937;28;20287;-73
2021/05/01 04:29:57;;;;;;;15.53;13.87;;;7.80;99.90;;;;;;5052600;28;20217;-73
2021/05/01 04:32:23;;;;;;;18.23;15.73;;;7.70;99.90;;;;;;5051478;28;20225;-73
2021/05/01 04:34:49;;;;;;;19.53;16.30;;;7.70;99.90;;;;;;5052188;28;20176;-73
2021/05/01 04:37:14;;;;;;;16.40;14.30;;;7.70;99.90;;;;;;5051572;28;20176;-73
2021/05/01 04:39:40;;;;;;;19.00;15.83;;;7.70;99.90;;;;;;5048301;28;20202;-73
2021/05/01 04:42:07;;;;;;;20.73;16.57;;;7.80;99.90;;;;;;5046709;28;20644;-73
2021/05/01 04:44:33;;;;;;;18.03;15.97;;;7.80;99.90;;;;;;5050245;28;20191;-73
2021/05/01 04:46:59;;;;;;;18.87;15.47;;;7.80;99.90;;;;;;5052360;28;20209;-72
2021/05/01 04:49:25;;;;;;;21.40;17.40;;;7.80;99.90;;;;;;5052252;28;20755;-73
2021/05/01 04:51:50;;;;;;;18.37;15.93;;;7.70;99.90;;;;;;5051699;28;20175;-73
2021/05/01 04:54:16;;;;;;;18.00;15.57;;;7.60;99.90;;;;;;5052654;28;20625;-73
2021/05/01 04:56:42;;;;;;;19.90;16.77;;;7.60;99.90;;;;;;5052233;28;20275;-73
2021/05/01 04:59:08;;;;;;;19.73;16.00;;;7.70;99.90;;;;;;5053244;28;20209;-73
2021/05/01 05:01:35;;;;;;;21.97;16.07;;;7.70;99.90;;;;;;5051171;28;20184;-74
2021/05/01 05:04:02;;;;;;;19.73;16.10;;;7.70;99.90;;;;;;5050862;28;20207;-73
2021/05/01 05:06:28;;;;;;;17.93;15.77;;;7.70;99.90;;;;;;5050997;28;20215;-73
2021/05/01 05:08:54;;;;;;;17.53;15.07;;;7.70;99.90;;;;;;5048285;28;20257;-73
2021/05/01 05:11:20;;;;;;;19.20;16.10;;;7.70;99.90;;;;;;5050375;28;20262;-73
2021/05/01 05:13:46;;;;;;;17.50;15.63;;;7.70;99.90;;;;;;5051343;28;20229;-72
2021/05/01 05:16:12;;;;;;;18.00;15.20;;;7.80;99.90;;;;;;5050546;28;20252;-74
2021/05/01 05:18:38;;;;;;;17.53;15.73;;;7.90;99.90;;;;;;5049141;28;20210;-73
2021/05/01 05:21:04;;;;;;;19.03;15.87;;;7.90;99.90;;;;;;5049593;28;20203;-73
2021/05/01 05:23:30;;;;;;;21.33;16.93;;;7.90;99.90;;;;;;5050845;28;20636;-73
2021/05/01 05:25:56;;;;;;;20.27;17.20;;;8.00;99.90;;;;;;5051457;28;20198;-73
2021/05/01 05:28:21;;;;;;;18.83;16.17;;;8.00;99.90;;;;;;5052458;28;20196;-74
2021/05/01 05:30:47;;;;;;;19.60;16.80;;;8.00;99.90;;;;;;5052411;28;20198;-73
2021/05/01 05:33:13;;;;;;;19.67;16.17;;;8.10;99.90;;;;;;5052128;28;20258;-73
2021/05/01 05:35:40;;;;;;;21.73;17.13;;;8.00;99.90;;;;;;5051523;28;20301;-73
2021/05/01 05:38:06;;;;;;;18.70;16.13;;;8.10;99.90;;;;;;5051995;28;20176;-73
2021/05/01 05:40:33;;;;;;;24.13;18.87;;;8.10;99.90;;;;;;5052988;28;20183;-73
2021/05/01 05:42:58;;;;;;;21.43;18.43;;;8.10;99.90;;;;;;5077293;22;20226;-77
2021/05/01 05:45:30;;;;;;;20.37;16.67;;;8.10;99.90;;;;;;5056603;28;20191;-77
2021/05/01 05:47:56;;;;;;;21.53;16.37;;;8.10;99.90;;;;;;5057784;28;20209;-77
2021/05/01 05:50:22;;;;;;;23.50;17.47;;;8.00;99.90;;;;;;5056955;28;20554;-77
2021/05/01 05:52:48;;;;;;;23.97;18.40;;;8.10;99.90;;;;;;5047655;28;20199;-77
2021/05/01 05:55:15;;;;;;;21.37;16.90;;;8.10;99.90;;;;;;5049250;28;20248;-77
2021/05/01 05:57:48;;;;;;;23.27;17.77;;;8.30;99.90;;;;;;5036523;28;20663;-76
2021/05/01 06:00:15;;;;;;;24.07;18.40;;;8.20;99.90;;;;;;5036700;28;20179;-76
2021/05/01 06:02:43;;;;;;;25.00;19.97;;;8.10;99.90;;;;;;5036254;28;20271;-77
2021/05/01 06:05:19;;;;;;;25.37;19.37;;;8.20;99.90;;;;;;5036709;28;20172;-77
2021/05/01 06:07:54;;;;;;;27.53;20.57;;;8.10;99.90;;;;;;5038398;28;20278;-77
2021/05/01 06:10:21;;;;;;;24.97;19.63;;;8.00;99.90;;;;;;5035225;28;20168;-77
2021/05/01 06:12:47;;;;;;;26.17;20.07;;;8.10;99.90;;;;;;5035255;28;20545;-77
2021/05/01 06:15:15;;;;;;;27.27;20.93;;;8.10;99.90;;;;;;5035022;28;20180;-76
2021/05/01 06:17:42;;;;;;;25.90;20.43;;;8.10;99.90;;;;;;5036266;28;20568;-76
2021/05/01 06:20:09;;;;;;;28.63;21.07;;;8.20;99.90;;;;;;5034175;28;20179;-76
2021/05/01 06:22:35;;;;;;;25.30;19.77;;;8.10;99.90;;;;;;5035651;28;20564;-77
2021/05/01 06:25:04;;;;;;;27.43;20.93;;;8.10;99.90;;;;;;5034500;28;20195;-76
2021/05/01 06:27:29;;;;;;;27.17;21.20;;;8.10;99.90;;;;;;5035457;28;20588;-76
2021/05/01 06:29:55;;;;;;;26.13;20.57;;;8.10;99.90;;;;;;5035336;28;20171;-77
2021/05/01 06:32:21;;;;;;;26.43;20.63;;;8.10;99.90;;;;;;5033942;28;20301;-77
2021/05/01 06:34:53;;;;;;;25.50;20.23;;;8.10;99.90;;;;;;5030877;28;20185;-77
2021/05/01 06:37:20;;;;;;;27.70;20.80;;;8.10;99.90;;;;;;5032482;28;20250;-77
2021/05/01 06:39:48;;;;;;;25.77;19.87;;;8.00;99.90;;;;;;5034578;28;20168;-77
2021/05/01 06:42:18;;;;;;;27.70;20.43;;;8.00;99.90;;;;;;5035526;28;20203;-77
2021/05/01 06:45:10;;;;;;;27.80;20.03;;;8.00;99.90;;;;;;5030779;28;20173;-76
2021/05/01 06:47:46;;;;;;;25.70;18.93;;;8.10;99.90;;;;;;5035802;28;20241;-76
2021/05/01 06:50:13;;;;;;;24.50;19.93;;;8.00;99.90;;;;;;5032225;28;20182;-76
2021/05/01 06:52:45;;;;;;;29.63;19.80;;;8.00;99.90;;;;;;5033838;28;20210;-77
2021/05/01 06:55:16;;;;;;;25.70;19.73;;;8.10;99.90;;;;;;5034329;28;20263;-77
2021/05/01 06:57:53;;;;;;;26.20;19.27;;;8.10;99.90;;;;;;5034260;28;20199;-77
2021/05/01 07:00:21;;;;;;;24.70;19.90;;;8.20;99.90;;;;;;5032917;28;20228;-77
2021/05/01 07:02:48;;;;;;;24.27;18.20;;;8.20;99.90;;;;;;5035058;28;20192;-76
2021/05/01 07:05:22;;;;;;;22.87;18.50;;;8.20;99.90;;;;;;5034034;28;20171;-76
2021/05/01 07:07:48;;;;;;;25.53;19.80;;;8.20;99.90;;;;;;5035567;28;20171;-73
2021/05/01 07:10:15;;;;;;;26.37;19.67;;;8.30;99.90;;;;;;5035518;28;20184;-78
2021/05/01 07:12:42;;;;;;;25.37;19.60;;;8.40;99.90;;;;;;5033905;28;20210;-75
2021/05/01 07:15:18;;;;;;;22.97;18.97;;;8.40;99.90;;;;;;5031407;28;20260;-70
2021/05/01 07:17:48;;;;;;;22.70;18.40;;;8.40;99.90;;;;;;5033430;28;20249;-73
2021/05/01 07:20:14;;;;;;;23.07;18.00;;;8.40;99.90;;;;;;5033915;28;20706;-72
2021/05/01 07:22:41;;;;;;;23.40;18.20;;;8.40;99.90;;;;;;5032127;28;20279;-72
2021/05/01 07:25:13;;;;;;;21.47;18.13;;;8.40;99.90;;;;;;5032940;28;20254;-72
2021/05/01 07:27:54;;;;;;;21.97;17.43;;;8.30;99.90;;;;;;5032990;28;20181;-72
2021/05/01 07:30:26;;;;;;;22.63;17.83;;;8.30;99.90;;;;;;5031888;28;20637;-72
2021/05/01 07:33:14;;;;;;;21.53;18.33;;;8.40;99.90;;;;;;5026343;28;20200;-72
2021/05/01 07:35:44;;;;;;;23.07;17.30;;;8.40;99.90;;;;;;5025804;28;20274;-72
2021/05/01 07:38:13;;;;;;;20.27;17.37;;;8.40;99.90;;;;;;5033967;28;20773;-72
2021/05/01 07:40:39;;;;;;;20.10;16.77;;;8.50;99.90;;;;;;5034610;28;20669;-71
2021/05/01 07:43:09;;;;;;;21.33;16.83;;;8.40;99.90;;;;;;5034242;28;20584;-71
2021/05/01 07:45:36;;;;;;;21.53;17.73;;;8.50;99.90;;;;;;5026301;28;20179;-71
2021/05/01 07:48:03;;;;;;;18.83;16.40;;;8.60;99.90;;;;;;5030756;28;20177;-72
2021/05/01 07:50:30;;;;;;;22.53;18.43;;;8.60;99.90;;;;;;5034198;28;20191;-72
2021/05/01 07:52:56;;;;;;;23.67;18.23;;;8.60;99.90;;;;;;5034378;28;20239;-72
2021/05/01 07:55:22;;;;;;;20.90;17.27;;;8.70;99.90;;;;;;5034107;28;20208;-71
2021/05/01 07:57:49;;;;;;;21.63;17.57;;;8.70;99.90;;;;;;5034328;28;20695;-71
2021/05/01 08:00:19;;;;;;;23.13;17.80;;;8.70;99.90;;;;;;5032320;28;20661;-72
2021/05/01 08:02:46;;;;;;;21.33;17.70;;;8.80;99.90;;;;;;5033163;28;20629;-72
2021/05/01 08:05:12;;;;;;;21.90;17.40;;;8.90;99.90;;;;;;5033410;28;20646;-71
2021/05/01 08:07:38;;;;;;;19.43;16.53;;;9.00;99.90;;;;;;5034259;28;20268;-73
2021/05/01 08:10:07;;;;;;;21.57;16.20;;;9.10;99.90;;;;;;5034472;28;20256;-71
2021/05/01 08:12:33;;;;;;;19.67;16.13;;;9.20;99.90;;;;;;5032412;28;20320;-71
2021/05/01 08:14:59;;;;;;;22.20;17.10;;;9.10;99.90;;;;;;5033890;28;20182;-71
2021/05/01 08:17:25;;;;;;;24.50;18.63;;;9.00;99.90;;;;;;5029688;28;20211;-71
2021/05/01 08:19:53;;;;;;;21.00;16.93;;;9.10;99.90;;;;;;5021931;28;20185;-72
2021/05/01 08:22:18;;;;;;;24.20;18.27;;;9.00;99.90;;;;;;5032555;28;20295;-73
2021/05/01 08:24:44;;;;;;;21.70;17.30;;;9.20;99.90;;;;;;5033804;28;20268;-72
2021/05/01 08:27:10;;;;;;;20.47;16.77;;;9.30;99.90;;;;;;5027756;28;20268;-73
2021/05/01 08:29:36;;;;;;;22.47;17.30;;;9.40;99.90;;;;;;5016609;28;20181;-71
2021/05/01 08:32:02;;;;;;;22.40;17.10;;;9.50;99.90;;;;;;5031416;28;20192;-71
2021/05/01 08:34:27;;;;;;;22.40;16.67;;;9.60;99.90;;;;;;5033008;28;20652;-71
2021/05/01 08:36:53;;;;;;;21.90;17.60;;;9.60;99.90;;;;;;5034031;28;20682;-71
2021/05/01 08:39:19;;;;;;;22.07;18.00;;;9.60;99.90;;;;;;5033198;28;20178;-72
2021/05/01 08:41:45;;;;;;;19.50;16.43;;;9.60;99.90;;;;;;5032310;28;20196;-73
2021/05/01 08:44:11;;;;;;;25.13;17.73;;;9.60;99.90;;;;;;5025595;28;20198;-71
2021/05/01 08:46:38;;;;;;;20.67;16.50;;;9.60;99.90;;;;;;5033323;28;20629;-71
2021/05/01 08:49:04;;;;;;;19.17;16.27;;;9.70;99.90;;;;;;5032718;28;20192;-72
2021/05/01 08:51:30;;;;;;;18.30;15.60;;;9.70;99.90;;;;;;5033332;28;20181;-71
2021/05/01 08:53:56;;;;;;;19.10;15.73;;;9.70;99.90;;;;;;5033123;28;20582;-71
2021/05/01 08:56:22;;;;;;;20.97;16.03;;;9.70;99.90;;;;;;5032267;28;20188;-71
2021/05/01 08:58:48;;;;;;;20.57;16.30;;;9.70;99.90;;;;;;5033278;28;20268;-72
2021/05/01 09:01:15;;;;;;;18.53;15.80;;;9.70;99.90;;;;;;5033299;28;20698;-71
2021/05/01 09:03:42;;;;;;;21.80;16.40;;;9.70;99.90;;;;;;5032151;28;20213;-71
2021/05/01 09:06:09;;;;;;;22.27;16.80;;;9.80;99.90;;;;;;5032660;28;20187;-71
2021/05/01 09:08:41;;;;;;;19.13;15.37;;;9.80;99.90;;;;;;5033125;28;20291;-71
2021/05/01 09:11:08;;;;;;;20.13;16.23;;;9.80;99.90;;;;;;5033343;28;20644;-72
2021/05/01 09:13:46;;;;;;;20.03;16.23;;;9.80;99.90;;;;;;5032925;28;20201;-71
2021/05/01 09:16:14;;;;;;;22.77;15.27;;;9.90;99.90;;;;;;5032886;28;20205;-72
2021/05/01 09:18:58;;;;;;;18.57;15.33;;;10.00;99.90;;;;;;5033288;28;20647;-72
2021/05/01 09:21:29;;;;;;;18.53;15.30;;;10.00;99.90;;;;;;5032774;28;20182;-71
2021/05/01 09:23:55;;;;;;;17.87;15.17;;;10.00;99.90;;;;;;5032783;28;20258;-71
2021/05/01 09:26:42;;;;;;;19.23;15.60;;;10.00;99.90;;;;;;5032927;28;20636;-70
2021/05/01 09:29:08;;;;;;;19.57;15.90;;;10.00;99.90;;;;;;5029660;28;20197;-72
2021/05/01 09:31:46;;;;;;;20.77;15.70;;;10.10;99.90;;;;;;5031605;28;20543;-72
2021/05/01 09:34:12;;;;;;;19.83;17.77;;;10.10;99.90;;;;;;5031093;28;20528;-72
2021/05/01 09:36:39;;;;;;;17.93;15.50;;;10.00;99.90;;;;;;5032100;28;20204;-71
2021/05/01 09:39:07;;;;;;;17.87;14.93;;;9.90;99.90;;;;;;5032583;28;20173;-71
2021/05/01 09:41:45;;;;;;;18.93;15.40;;;9.90;99.90;;;;;;5030949;28;20205;-73
2021/05/01 09:44:20;;;;;;;19.30;15.57;;;10.00;99.90;;;;;;5027125;28;20197;-72
2021/05/01 09:46:49;;;;;;;21.20;15.77;;;10.00;99.90;;;;;;5032641;28;20226;-71
2021/05/01 09:49:31;;;;;;;19.10;15.03;;;10.00;99.90;;;;;;5032818;28;20200;-71
2021/05/01 09:52:10;;;;;;;20.50;15.53;;;10.00;99.90;;;;;;5032408;28;20193;-71
2021/05/01 09:54:47;;;;;;;21.80;16.10;;;10.00;99.90;;;;;;5029918;28;20523;-72
2021/05/01 09:57:21;;;;;;;23.43;16.07;;;10.00;99.90;;;;;;5029068;28;20189;-71
2021/05/01 09:59:52;;;;;;;26.13;16.43;;;10.10;99.90;;;;;;5031863;28;20165;-72
2021/05/01 10:02:23;;;;;;;23.60;16.27;;;10.10;99.90;;;;;;5032103;28;20213;-71
2021/05/01 10:05:03;;;;;;;21.43;15.40;;;10.10;99.90;;;;;;5032437;28;20172;-71
2021/05/01 10:07:29;;;;;;;22.53;15.53;;;10.20;99.90;;;;;;5031455;28;20177;-73
2021/05/01 10:09:58;;;;;;;24.23;17.23;;;10.20;99.90;;;;;;5017138;28;20650;-73
2021/05/01 10:12:34;;;;;;;24.97;17.83;;;10.20;99.90;;;;;;5028347;28;20236;-72
2021/05/01 10:15:13;;;;;;;24.43;16.43;;;10.20;99.90;;;;;;5024825;28;20185;-73
2021/05/01 10:17:39;;;;;;;23.43;16.47;;;10.20;99.90;;;;;;5025956;28;20189;-73
2021/05/01 10:20:07;;;;;;;20.83;15.47;;;10.20;99.90;;;;;;5027721;28;20675;-71
2021/05/01 10:22:41;;;;;;;21.57;16.07;;;10.20;99.90;;;;;;5015429;28;20225;-71
2021/05/01 10:25:08;;;;;;;19.73;14.67;;;10.20;99.90;;;;;;5012545;28;20178;-71
2021/05/01 10:27:42;;;;;;;20.53;14.47;;;10.30;99.90;;;;;;5017067;28;20205;-70
2021/05/01 10:30:29;;;;;;;20.43;15.07;;;10.40;99.90;;;;;;5016337;28;20175;-72
2021/05/01 10:35:38;;;;;;;19.40;16.00;;;10.30;99.90;;;;;;5029428;28;20181;-73
2021/05/01 10:38:06;;;;;;;17.63;15.00;;;10.40;99.90;;;;;;5031962;28;20204;-73
2021/05/01 10:40:49;;;;;;;20.27;15.37;;;10.30;99.90;;;;;;5026203;28;20167;-71
2021/05/01 10:43:17;;;;;;;18.80;14.77;;;10.30;99.90;;;;;;5021117;28;20205;-71
2021/05/01 10:45:56;;;;;;;19.57;15.37;;;10.40;99.90;;;;;;5031782;28;20235;-71
2021/05/01 10:48:23;;;;;;;19.97;15.20;;;10.40;99.90;;;;;;5027142;28;20170;-71
2021/05/01 10:50:59;;;;;;;22.23;16.07;;;10.30;99.90;;;;;;5023760;28;20594;-71
2021/05/01 10:53:26;;;;;;;22.50;16.93;;;10.30;99.90;;;;;;5023006;28;20201;-72
2021/05/01 10:55:54;;;;;;;23.13;17.27;;;10.20;99.90;;;;;;5018259;28;21391;-71
2021/05/01 10:58:45;;;;;;;24.07;16.70;;;10.20;99.90;;;;;;5016634;28;20728;-73
2021/05/01 11:01:28;;;;;;;24.27;16.60;;;10.30;99.90;;;;;;5015329;28;20186;-70
2021/05/01 11:03:58;;;;;;;25.97;18.07;;;10.30;99.90;;;;;;5016336;28;20655;-72
2021/05/01 11:06:27;;;;;;;23.53;16.50;;;10.30;99.90;;;;;;5024232;28;20205;-72
2021/05/01 11:09:07;;;;;;;22.73;16.33;;;10.50;99.90;;;;;;5029019;28;20192;-73
2021/05/01 11:11:43;;;;;;;23.60;18.07;;;10.40;99.90;;;;;;5030071;28;20265;-74
2021/05/01 11:14:23;;;;;;;25.20;17.73;;;10.40;99.90;;;;;;5030169;28;20191;-71
2021/05/01 11:17:12;;;;;;;26.33;18.20;;;10.40;99.90;;;;;;5031039;28;20699;-71
2021/05/01 11:19:46;;;;;;;24.03;17.87;;;10.40;99.90;;;;;;5022989;28;20217;-73
2021/05/01 11:22:19;;;;;;;23.40;16.80;;;10.40;99.90;;;;;;5029250;28;20193;-71
2021/05/01 11:24:46;;;;;;;23.27;17.30;;;10.40;99.90;;;;;;5022884;28;20265;-72
2021/05/01 11:27:13;;;;;;;26.83;18.93;;;10.40;99.90;;;;;;5028103;28;20245;-73
2021/05/01 11:29:40;;;;;;;24.17;17.87;;;10.40;99.90;;;;;;5030702;28;20185;-72
2021/05/01 11:32:07;;;;;;;25.67;17.70;;;10.40;99.90;;;;;;5027403;28;20225;-72
2021/05/01 11:34:34;;;;;;;29.77;18.77;;;10.50;99.90;;;;;;5032258;28;20183;-73
2021/05/01 11:37:07;;;;;;;23.63;18.33;;;10.50;99.90;;;;;;5024558;28;20204;-72
2021/05/01 11:39:40;;;;;;;26.93;18.77;;;10.50;99.90;;;;;;5030332;28;20655;-72
2021/05/01 11:42:06;;;;;;;24.87;18.50;;;10.40;99.90;;;;;;5031515;28;20284;-73
2021/05/01 11:44:33;;;;;;;24.97;17.60;;;10.40;99.90;;;;;;5066062;22;20181;-70
2021/05/01 11:47:08;;;;;;;27.73;18.60;;;10.30;99.90;;;;;;5049482;28;20189;-71
2021/05/01 11:49:35;;;;;;;26.00;17.87;;;10.30;99.90;;;;;;5058137;28;20200;-71
2021/05/01 11:52:10;;;;;;;25.90;19.33;;;10.30;99.90;;;;;;5033920;28;20182;-72
2021/05/01 11:54:57;;;;;;;29.47;19.80;;;10.30;99.90;;;;;;5044815;28;20211;-71
2021/05/01 11:57:43;;;;;;;30.13;20.30;;;10.40;99.90;;;;;;5038803;28;20678;-71
2021/05/01 12:00:11;;;;;;;28.33;19.57;;;10.50;99.90;;;;;;5038647;28;20235;-72
2021/05/01 12:02:42;;;;;;;22.90;17.87;;;10.40;99.90;;;;;;5045365;28;20543;-71
2021/05/01 12:05:18;;;;;;;19.33;16.40;;;10.40;99.90;;;;;;5042940;28;20262;-71
2021/05/01 12:08:14;;;;;;;16.60;14.90;;;10.40;99.90;;;;;;5044884;28;20263;-71
2021/05/01 12:10:45;;;;;;;18.43;16.53;;;10.40;99.90;;;;;;5040941;28;20239;-72
2021/05/01 12:13:30;;;;;;;17.57;15.93;;;10.30;99.90;;;;;;5038366;28;20706;-71
2021/05/01 12:16:00;;;;;;;19.47;17.47;;;10.30;99.90;;;;;;5048165;28;20208;-71
2021/05/01 12:18:46;;;;;;;17.47;15.67;;;10.30;99.90;;;;;;5039812;28;20206;-71
2021/05/01 12:21:19;;;;;;;18.50;16.07;;;10.30;99.90;;;;;;5040192;28;20234;-71
2021/05/01 12:23:47;;;;;;;17.47;15.67;;;10.30;99.90;;;;;;5044763;28;20182;-72
2021/05/01 12:26:32;;;;;;;18.23;16.33;;;10.20;99.90;;;;;;5037423;28;20201;-71
2021/05/01 12:29:24;;;;;;;17.73;16.00;;;10.30;99.90;;;;;;5050285;28;20721;-71
2021/05/01 12:31:55;;;;;;;19.70;17.20;;;10.20;99.90;;;;;;5043386;28;20193;-71
2021/05/01 12:34:41;;;;;;;19.47;16.43;;;10.20;99.90;;;;;;5040856;28;20169;-72
2021/05/01 12:37:11;;;;;;;17.70;15.90;;;10.20;99.90;;;;;;5045895;28;20701;-71
2021/05/01 12:39:38;;;;;;;16.03;14.43;;;10.20;99.90;;;;;;5049177;28;20635;-71
2021/05/01 12:42:21;;;;;;;14.13;12.87;;;10.20;99.90;;;;;;5044605;28;20180;-71
2021/05/01 12:44:48;;;;;;;13.80;12.47;;;10.20;99.90;;;;;;5047445;28;21190;-72